Flight Track Log - Related Links

Times and Time Zones

All times are in EDT time to prevent confusion due to time zone crossing. See the N707JC flight status page for this flight to view local times or setup timezone preferences in your user account.

Time Position Orientation Groundspeed Altitude Reporting Facility
EDT Latitude Longitude Course Direction KTS MPH feet Rate Location/Type
Sat 01:20:26 PM 42.4500 -71.3667 251° West 213 245 2,100  Level KA90
Sat 01:21:21 PM 42.4167 -71.4167 228° Southwest 205 236 3,100 1,878 Climbing KA90
Sat 01:22:21 PM 42.3667 -71.4667 216° Southwest 254 292 5,700 2,633 Climbing KA90
Sat 01:22:59 PM 42.3258 -71.5078 217° Southwest 269 310 7,400 2,324 Climbing Boston Center
Sat 01:24:12 PM 42.2514 -71.5817 216° Southwest 277 319 10,000 1,228 Climbing Boston Center
Sat 01:25:06 PM 42.1933 -71.6556 223° Southwest 334 384 10,000  Level Boston Center
Sat 01:26:07 PM 42.1692 -71.7819 256° West 329 379 10,000 -99 Level Boston Center
Sat 01:27:07 PM 42.1572 -71.8939 262° West 279 321 9,800 -783 Descending Boston Center
Sat 01:28:02 PM 42.1514 -71.9864 265° West 272 313 8,500 -1,664 Descending Boston Center
Sat 01:29:06 PM 42.1394 -72.0872 261° West 271 312 6,500 -1,694 Descending Boston Center
Sat 01:30:06 PM 42.1314 -72.1881 264° West 270 311 5,000 -793 Descending Boston Center
Sat 01:31:07 PM 42.1211 -72.2833 262° West 261 300 4,900 -898 Descending Boston Center
Sat 01:32:13 PM 42.1086 -72.3925 261° West 256 295 3,100 -898 Descending Boston Center
Sat 01:33:14 PM 42.0981 -72.4708 260° West 187 215 3,000 -50 Descending Boston Center
Sat 01:34:14 PM 42.0669 -72.5211 230° Southwest 177 204 3,000 -248 Level Boston Center
Sat 01:35:15 PM 42.0294 -72.5686 223° Southwest 189 217 2,500 -677 Descending Boston Center
Sat 01:36:18 PM 42.0000 -72.6078 225° Southwest 125 144 1,600 -726 Descending Boston Center
Sat 01:37:19 PM 41.9750 -72.6411 225° Southwest 114 131 1,000 -645 Descending Boston Center
Sat 01:38:19 PM 41.9500 -72.6717 222° Southwest 123 142 300 -700 Descending Boston Center
Sat 01:40:00 PM 41.9333 -72.6833 257° West  Level FlightAware Approximate
Sat 01:47:00 PM 41.9392 -72.6834 257° West  Level Estimated
Sat 01:48:00 PM 41.9333 -72.6833 257° West  Level FlightAware Approximate

Login

Don't have an account? Register now (free) for customized features, flight alerts, and more!